Time;durP1;ratioP1;P1;durP2;ratioP2;P2;SDS_P1;SDS_P2;PMS_P1;PMS_P2;Temp;Humidity;BMP_temperature;BMP_pressure;BME280_temperature;BME280_humidity;BME280_pressure;Samples;Min_cycle;Max_cycle;Signal;HPM_P1;HPM_P2
2022/10/18 04:00:17;;;;;;;17.20;7.93;;;;;;;;;;6043268;23;20373;-79
2022/10/18 04:02:43;;;;;;;10.63;7.40;;;10.50;96.30;;;;;;5011241;28;20432;-78
2022/10/18 04:05:09;;;;;;;12.37;9.00;;;10.60;96.30;;;;;;5004825;28;20408;-78
2022/10/18 04:07:34;;;;;;;10.50;8.60;;;10.60;96.30;;;;;;4990893;28;20181;-78
2022/10/18 04:10:00;;;;;;;17.03;8.40;;;10.60;96.30;;;;;;5001906;28;20649;-78
2022/10/18 04:12:26;;;;;;;12.13;7.77;;;10.60;96.30;;;;;;4993791;28;20683;-79
2022/10/18 04:14:51;;;;;;;8.80;7.50;;;10.60;96.30;;;;;;4975899;28;20237;-78
2022/10/18 04:17:17;;;;;;;12.30;8.37;;;10.60;96.30;;;;;;4999027;28;20681;-80
2022/10/18 04:19:42;;;;;;;15.37;8.80;;;10.60;96.30;;;;;;4983399;28;20171;-80
2022/10/18 04:22:10;;;;;;;15.00;8.70;;;10.60;96.30;;;;;;4990550;28;20261;-80
2022/10/18 04:24:36;;;;;;;9.17;7.57;;;10.70;96.30;;;;;;5003451;28;20543;-80
2022/10/18 04:27:03;;;;;;;8.50;7.43;;;10.70;96.30;;;;;;5001531;28;20420;-80
2022/10/18 04:29:28;;;;;;;8.70;7.80;;;10.70;96.30;;;;;;5002437;28;20185;-81
2022/10/18 04:31:54;;;;;;;10.80;8.87;;;10.70;96.30;;;;;;5003759;28;20436;-80
2022/10/18 04:34:19;;;;;;;9.57;7.60;;;10.80;96.30;;;;;;4989015;28;20217;-81
2022/10/18 04:36:45;;;;;;;8.93;7.63;;;;;;;;;;4997118;28;20178;-81
2022/10/18 04:39:11;;;;;;;11.50;8.33;;;10.70;96.30;;;;;;4998090;28;20179;-80
2022/10/18 04:41:36;;;;;;;11.87;7.50;;;10.60;96.30;;;;;;4982068;28;20222;-80
2022/10/18 04:44:02;;;;;;;9.17;7.40;;;10.60;96.30;;;;;;4983015;28;20179;-81
2022/10/18 04:46:27;;;;;;;9.37;7.43;;;10.60;96.30;;;;;;4982382;28;20175;-80
2022/10/18 04:48:53;;;;;;;12.20;8.17;;;10.60;96.30;;;;;;4999271;28;20178;-80
2022/10/18 04:51:18;;;;;;;12.43;8.10;;;10.60;96.30;;;;;;5001981;28;20206;-81
2022/10/18 04:53:44;;;;;;;8.20;6.43;;;10.60;96.30;;;;;;5002548;28;20174;-81
2022/10/18 04:56:09;;;;;;;11.37;7.33;;;10.60;96.30;;;;;;5004268;28;20173;-81
2022/10/18 04:58:35;;;;;;;7.10;6.40;;;10.70;96.30;;;;;;5003016;28;20177;-80
2022/10/18 05:01:05;;;;;;;15.47;7.53;;;10.80;96.30;;;;;;5002226;28;20760;-81
2022/10/18 05:03:30;;;;;;;8.80;6.93;;;10.80;96.30;;;;;;5002501;28;20170;-79
2022/10/18 05:05:56;;;;;;;8.50;7.10;;;10.80;96.30;;;;;;4995646;28;20432;-79
2022/10/18 05:08:21;;;;;;;12.47;8.67;;;10.70;96.30;;;;;;4995277;28;20184;-79
2022/10/18 05:10:47;;;;;;;15.23;8.90;;;10.60;96.30;;;;;;4983919;28;20216;-77
2022/10/18 05:13:12;;;;;;;10.43;7.50;;;10.60;96.30;;;;;;4989275;28;20208;-77
2022/10/18 05:15:38;;;;;;;12.30;6.47;;;10.50;96.30;;;;;;4995190;28;20198;-77
2022/10/18 05:18:03;;;;;;;8.10;6.70;;;10.40;96.30;;;;;;4994903;28;20546;-77
2022/10/18 05:20:29;;;;;;;8.23;7.30;;;10.40;96.30;;;;;;4994151;28;20236;-76
2022/10/18 05:22:55;;;;;;;19.77;6.53;;;;;;;;;;4995424;28;20178;-79
2022/10/18 05:25:21;;;;;;;9.03;6.87;;;;;;;;;;4995310;28;20178;-76
2022/10/18 05:27:46;;;;;;;11.27;7.00;;;10.60;96.30;;;;;;5007311;28;20180;-76
2022/10/18 05:30:12;;;;;;;8.37;6.43;;;10.60;96.30;;;;;;5014850;28;20916;-76
2022/10/18 05:32:37;;;;;;;8.10;7.30;;;10.60;96.30;;;;;;5014965;28;20185;-76
2022/10/18 05:35:03;;;;;;;12.77;7.50;;;10.60;96.30;;;;;;5014876;28;20244;-76
2022/10/18 05:37:28;;;;;;;17.70;7.07;;;10.70;96.30;;;;;;4996837;28;20217;-75
2022/10/18 05:39:54;;;;;;;6.60;6.00;;;10.90;96.30;;;;;;4997118;28;20180;-76
2022/10/18 05:42:19;;;;;;;8.80;7.00;;;11.00;96.30;;;;;;5014675;28;20193;-76
2022/10/18 05:44:45;;;;;;;10.40;6.97;;;11.10;96.30;;;;;;5014725;28;20196;-75
2022/10/18 05:47:11;;;;;;;10.00;6.77;;;11.20;96.30;;;;;;5014130;28;20181;-76
2022/10/18 05:49:36;;;;;;;10.60;5.93;;;11.20;96.30;;;;;;4997081;28;20177;-76
2022/10/18 05:52:02;;;;;;;11.17;7.23;;;11.30;96.30;;;;;;5014528;28;20292;-77
2022/10/18 05:54:27;;;;;;;10.30;6.80;;;11.20;96.30;;;;;;5014505;28;20274;-75
2022/10/18 05:56:53;;;;;;;10.17;6.40;;;11.30;96.30;;;;;;4996234;28;20173;-76
2022/10/18 05:59:18;;;;;;;7.73;6.87;;;11.30;96.30;;;;;;5014423;28;20176;-76
2022/10/18 06:01:44;;;;;;;15.37;13.43;;;11.50;96.30;;;;;;5014181;28;20216;-78
2022/10/18 06:04:10;;;;;;;26.37;15.37;;;11.80;96.30;;;;;;5014524;28;20181;-75
2022/10/18 06:06:36;;;;;;;15.50;10.90;;;12.00;96.30;;;;;;4996674;28;20537;-76
2022/10/18 06:09:03;;;;;;;6.67;6.00;;;12.30;96.30;;;;;;5013911;28;20185;-76
2022/10/18 06:11:29;;;;;;;7.20;6.03;;;12.70;96.30;;;;;;5000013;28;20970;-77
2022/10/18 06:13:58;;;;;;;10.07;7.00;;;12.80;96.30;;;;;;4989904;28;20417;-78
2022/10/18 06:16:25;;;;;;;11.70;7.07;;;13.00;96.30;;;;;;4973525;28;20410;-77
2022/10/18 06:18:54;;;;;;;9.27;6.27;;;12.90;96.30;;;;;;4974286;28;20410;-78
2022/10/18 06:21:19;;;;;;;10.70;5.27;;;12.80;96.30;;;;;;4989325;28;20448;-78
2022/10/18 06:24:03;;;;;;;11.53;9.30;;;12.70;96.30;;;;;;4993545;28;20460;-79
2022/10/18 06:26:29;;;;;;;11.13;9.10;;;12.70;96.30;;;;;;4993355;28;20424;-79
2022/10/18 06:28:55;;;;;;;8.87;6.33;;;12.70;96.30;;;;;;4993796;28;20471;-79
2022/10/18 06:31:20;;;;;;;7.60;5.60;;;12.60;96.30;;;;;;4992921;28;20201;-79
2022/10/18 06:33:46;;;;;;;9.30;6.43;;;12.50;96.30;;;;;;4992633;28;20191;-79
2022/10/18 06:36:15;;;;;;;11.63;6.60;;;12.50;96.30;;;;;;4993224;28;20186;-79
2022/10/18 06:38:40;;;;;;;8.13;7.33;;;12.50;96.30;;;;;;4992590;28;20197;-79
2022/10/18 06:41:07;;;;;;;8.13;6.70;;;12.50;96.30;;;;;;4993745;28;20940;-79
2022/10/18 06:43:33;;;;;;;8.80;6.00;;;12.40;96.30;;;;;;4992509;28;20181;-79
2022/10/18 06:46:02;;;;;;;7.60;5.87;;;12.40;96.30;;;;;;4993836;28;20428;-79
2022/10/18 06:48:27;;;;;;;6.97;6.27;;;12.30;96.30;;;;;;4991960;28;20522;-79
2022/10/18 06:50:55;;;;;;;14.47;7.47;;;12.30;96.30;;;;;;4993715;28;21008;-79
2022/10/18 06:53:22;;;;;;;7.77;6.60;;;12.30;96.30;;;;;;4993387;28;20193;-79
2022/10/18 06:55:48;;;;;;;7.67;6.57;;;;;;;;;;4993446;28;20463;-79
2022/10/18 06:58:13;;;;;;;8.37;5.73;;;12.20;96.30;;;;;;4991644;28;20409;-79
2022/10/18 07:00:39;;;;;;;5.83;5.20;;;12.20;96.30;;;;;;4992009;28;20300;-79
2022/10/18 07:03:05;;;;;;;8.20;5.53;;;12.20;96.30;;;;;;4992076;28;20181;-79
2022/10/18 07:05:31;;;;;;;10.53;6.70;;;12.20;96.30;;;;;;4992205;28;20214;-79
2022/10/18 07:07:57;;;;;;;10.00;7.20;;;;;;;;;;4992774;28;20186;-79
2022/10/18 07:10:24;;;;;;;9.07;5.80;;;12.20;96.30;;;;;;4993270;28;20901;-79
2022/10/18 07:12:49;;;;;;;15.30;7.30;;;12.10;96.30;;;;;;4991865;28;20181;-79
2022/10/18 07:15:16;;;;;;;10.40;7.70;;;12.00;96.30;;;;;;4993127;28;20463;-79
2022/10/18 07:17:45;;;;;;;13.43;8.00;;;12.00;96.30;;;;;;4992695;28;20570;-79
2022/10/18 07:20:11;;;;;;;14.03;8.50;;;12.10;96.30;;;;;;4993065;28;20417;-79
2022/10/18 07:22:37;;;;;;;9.43;6.47;;;12.10;96.30;;;;;;4993052;28;20440;-79
2022/10/18 07:25:04;;;;;;;11.23;7.03;;;12.10;96.30;;;;;;4991236;28;21018;-79
2022/10/18 07:27:29;;;;;;;9.23;6.47;;;12.10;96.30;;;;;;4991222;28;20550;-79
2022/10/18 07:29:55;;;;;;;9.70;7.00;;;12.10;96.30;;;;;;4993012;28;20413;-79
2022/10/18 07:32:20;;;;;;;7.77;6.10;;;12.10;96.30;;;;;;4992855;28;20201;-79
2022/10/18 07:34:46;;;;;;;6.77;5.37;;;12.10;96.30;;;;;;4991679;28;20212;-79
2022/10/18 07:37:11;;;;;;;9.27;6.07;;;12.10;96.30;;;;;;4992389;28;20235;-79
2022/10/18 07:39:37;;;;;;;6.87;5.70;;;12.10;96.30;;;;;;4993038;28;20180;-79
2022/10/18 07:42:02;;;;;;;8.90;6.10;;;12.20;96.30;;;;;;4992912;28;20197;-79
2022/10/18 07:44:28;;;;;;;10.40;5.30;;;12.30;96.30;;;;;;4991622;28;20188;-79
2022/10/18 07:46:53;;;;;;;5.80;5.20;;;12.30;96.30;;;;;;4992375;28;20182;-79
2022/10/18 07:49:19;;;;;;;8.13;5.33;;;12.40;96.30;;;;;;4993012;28;20177;-79
2022/10/18 07:51:45;;;;;;;10.00;5.73;;;12.50;96.30;;;;;;4992822;28;20201;-79
2022/10/18 07:54:10;;;;;;;8.83;6.53;;;12.60;96.30;;;;;;4991410;28;20205;-79
2022/10/18 07:56:36;;;;;;;10.67;7.97;;;;;;;;;;4991357;28;20212;-79
2022/10/18 07:59:01;;;;;;;8.30;6.20;;;12.80;96.30;;;;;;4991079;28;20188;-79
2022/10/18 08:01:27;;;;;;;5.93;5.37;;;12.90;96.30;;;;;;4991217;28;20251;-79
2022/10/18 08:03:53;;;;;;;9.60;6.63;;;13.10;96.30;;;;;;4991427;28;20178;-79
2022/10/18 08:06:20;;;;;;;10.00;5.83;;;13.20;96.30;;;;;;4991308;28;20184;-78
2022/10/18 08:08:47;;;;;;;8.17;5.83;;;13.40;96.30;;;;;;4992047;28;20409;-79
2022/10/18 08:11:15;;;;;;;9.27;6.37;;;13.50;96.30;;;;;;4992504;28;20428;-78
2022/10/18 08:13:42;;;;;;;10.50;6.30;;;13.80;96.30;;;;;;4991400;28;20412;-79
2022/10/18 08:16:10;;;;;;;7.97;5.30;;;14.00;96.30;;;;;;4992455;28;20468;-78
2022/10/18 08:18:37;;;;;;;10.17;5.50;;;14.30;96.30;;;;;;4991985;28;20512;-78
2022/10/18 08:21:04;;;;;;;9.30;5.20;;;14.50;96.30;;;;;;4991288;28;20575;-78
2022/10/18 08:23:30;;;;;;;15.03;8.70;;;14.70;96.30;;;;;;4992467;28;20495;-78
2022/10/18 08:25:56;;;;;;;20.40;11.97;;;14.80;96.30;;;;;;4992435;28;20491;-78
2022/10/18 08:28:21;;;;;;;14.43;7.20;;;14.80;96.30;;;;;;4991769;28;20185;-78
2022/10/18 08:30:47;;;;;;;8.67;6.73;;;14.90;96.30;;;;;;4991338;28;20214;-78
2022/10/18 08:33:13;;;;;;;14.13;6.03;;;14.80;96.30;;;;;;4991224;28;20268;-78
2022/10/18 08:35:39;;;;;;;7.90;5.60;;;;;;;;;;4991137;28;20677;-78
2022/10/18 08:38:04;;;;;;;9.07;5.70;;;15.00;96.30;;;;;;4994311;28;20264;-78
2022/10/18 08:40:42;;;;;;;11.00;5.90;;;15.10;96.30;;;;;;4994732;28;20440;-78
2022/10/18 08:43:37;;;;;;;10.33;5.80;;;15.10;96.30;;;;;;4996001;28;20177;-78
2022/10/18 08:46:03;;;;;;;6.20;5.60;;;15.30;96.30;;;;;;4995939;28;20424;-78
2022/10/18 08:48:35;;;;;;;9.73;5.77;;;15.40;96.30;;;;;;4994340;28;20773;-78
2022/10/18 08:51:04;;;;;;;8.27;4.30;;;15.50;96.30;;;;;;4995832;28;20200;-78
2022/10/18 08:53:50;;;;;;;9.90;4.90;;;15.70;96.30;;;;;;4995775;28;20445;-78
2022/10/18 08:56:20;;;;;;;10.63;4.80;;;;;;;;;;4995720;28;20425;-78
2022/10/18 08:58:46;;;;;;;10.60;5.20;;;15.70;96.30;;;;;;4995490;28;20952;-78
2022/10/18 09:01:14;;;;;;;10.40;4.53;;;15.70;96.30;;;;;;4995490;28;20531;-78
2022/10/18 09:03:40;;;;;;;5.80;3.83;;;;;;;;;;4995585;28;20170;-78
2022/10/18 09:07:03;;;;;;;10.67;4.47;;;15.70;96.30;;;;;;4994325;28;20423;-77
2022/10/18 09:09:43;;;;;;;7.10;4.00;;;15.60;96.30;;;;;;4934959;29;20547;-78
2022/10/18 09:12:18;;;;;;;9.30;4.93;;;15.60;96.30;;;;;;4985658;28;20455;-78
2022/10/18 09:15:02;;;;;;;6.83;3.97;;;15.60;96.30;;;;;;4995413;28;20459;-78
2022/10/18 09:18:05;;;;;;;9.30;5.37;;;15.70;96.30;;;;;;4994861;28;20405;-78
2022/10/18 09:20:56;;;;;;;6.00;3.97;;;15.80;96.30;;;;;;4994779;28;20440;-78
2022/10/18 09:24:03;;;;;;;8.00;4.17;;;16.00;96.30;;;;;;4994699;28;20425;-78
2022/10/18 09:26:37;;;;;;;6.63;4.53;;;16.10;96.30;;;;;;4993883;28;20817;-78
2022/10/18 09:29:36;;;;;;;11.13;4.40;;;16.20;96.30;;;;;;4994851;28;20393;-78
2022/10/18 09:32:23;;;;;;;10.07;4.93;;;16.30;96.30;;;;;;4993809;28;20432;-78
2022/10/18 09:34:52;;;;;;;5.90;4.73;;;16.40;96.30;;;;;;4993879;28;20484;-78
2022/10/18 09:37:19;;;;;;;7.80;4.00;;;16.50;96.30;;;;;;4994558;28;20412;-78
2022/10/18 09:39:47;;;;;;;7.50;4.53;;;16.50;96.30;;;;;;4993761;28;20413;-78
2022/10/18 09:42:25;;;;;;;9.73;4.63;;;16.50;96.30;;;;;;4994780;28;20912;-78
2022/10/18 09:44:58;;;;;;;7.93;4.13;;;16.60;96.30;;;;;;4995021;28;20416;-78
2022/10/18 09:47:37;;;;;;;9.80;4.50;;;16.80;96.30;;;;;;4993889;28;20393;-78
2022/10/18 09:50:23;;;;;;;5.67;4.03;;;17.30;96.30;;;;;;4993569;28;20421;-78
2022/10/18 09:52:57;;;;;;;7.87;4.30;;;17.90;96.30;;;;;;4994823;28;20397;-78
2022/10/18 09:55:29;;;;;;;4.43;3.10;;;18.20;96.30;;;;;;4994523;28;20456;-78
2022/10/18 09:58:01;;;;;;;6.13;4.07;;;18.60;96.30;;;;;;4994160;28;20452;-78
2022/10/18 10:00:43;;;;;;;4.60;3.80;;;18.80;96.30;;;;;;4993107;28;20512;-78
2022/10/18 10:03:13;;;;;;;3.97;3.30;;;19.00;96.30;;;;;;4994686;28;20415;-78
2022/10/18 10:05:39;;;;;;;5.57;3.40;;;19.00;96.30;;;;;;4993348;28;20503;-78
2022/10/18 10:08:05;;;;;;;6.90;3.13;;;18.70;96.30;;;;;;4994025;28;20524;-78
2022/10/18 10:10:31;;;;;;;4.60;3.00;;;18.50;96.30;;;;;;4994381;28;21483;-78
2022/10/18 10:13:21;;;;;;;6.00;2.70;;;18.20;96.30;;;;;;4994401;28;20224;-78
2022/10/18 10:16:01;;;;;;;7.73;3.20;;;18.00;96.30;;;;;;4997586;28;20585;-79
2022/10/18 10:18:29;;;;;;;7.90;2.77;;;18.10;96.30;;;;;;4995853;28;20408;-78
2022/10/18 10:26:21;;;;;;;5.83;3.40;;;17.80;96.30;;;;;;5792866;23;20483;-80
2022/10/18 10:28:47;;;;;;;6.63;3.83;;;17.50;96.30;;;;;;5022558;28;20392;-79
2022/10/18 10:31:26;;;;;;;7.87;4.07;;;17.30;96.30;;;;;;5016105;28;20471;-79
2022/10/18 10:34:03;;;;;;;5.67;4.90;;;17.20;96.30;;;;;;5045040;28;20275;-80
2022/10/18 10:36:29;;;;;;;7.23;4.13;;;17.10;96.30;;;;;;5027421;28;20415;-80
2022/10/18 10:39:10;;;;;;;8.30;5.23;;;17.00;96.30;;;;;;5026996;28;20423;-80
2022/10/18 10:41:39;;;;;;;8.83;5.20;;;16.80;96.30;;;;;;5042653;28;20480;-80
2022/10/18 10:44:17;;;;;;;7.53;5.13;;;16.70;96.30;;;;;;5043786;28;20414;-80
2022/10/18 10:46:43;;;;;;;9.50;6.67;;;16.70;96.30;;;;;;5044684;28;20387;-80
2022/10/18 10:49:19;;;;;;;9.00;6.73;;;16.50;96.30;;;;;;5044393;28;20465;-80
2022/10/18 10:51:51;;;;;;;12.70;7.37;;;16.40;96.30;;;;;;5043424;28;20254;-80
2022/10/18 10:54:22;;;;;;;9.57;6.97;;;16.30;96.30;;;;;;5043435;28;20584;-79
2022/10/18 10:57:10;;;;;;;15.53;7.97;;;16.10;96.30;;;;;;5042352;28;20419;-79
2022/10/18 10:59:51;;;;;;;10.30;8.50;;;16.00;96.30;;;;;;5022323;28;20930;-79
2022/10/18 11:02:24;;;;;;;9.10;8.20;;;15.80;96.30;;;;;;5040383;28;20980;-80
2022/10/18 11:04:52;;;;;;;9.73;8.30;;;15.70;96.30;;;;;;5042140;28;20427;-80
2022/10/18 11:07:30;;;;;;;10.90;8.77;;;15.60;96.30;;;;;;5036564;28;20415;-78
2022/10/18 11:10:11;;;;;;;9.80;8.07;;;15.50;96.30;;;;;;5015009;28;20421;-78
2022/10/18 11:12:44;;;;;;;10.50;9.40;;;15.40;96.30;;;;;;5014621;28;20435;-77
2022/10/18 11:15:12;;;;;;;10.23;9.10;;;15.30;96.30;;;;;;5014714;28;21111;-77
2022/10/18 11:18:05;;;;;;;8.67;7.77;;;15.30;96.30;;;;;;5032017;28;20453;-78
2022/10/18 11:20:46;;;;;;;10.23;9.03;;;15.20;96.30;;;;;;5042263;28;20399;-82
2022/10/18 11:23:13;;;;;;;9.37;8.47;;;15.10;96.30;;;;;;5036686;28;20409;-80
2022/10/18 11:25:42;;;;;;;9.37;8.43;;;15.00;96.30;;;;;;5014673;28;20435;-80
2022/10/18 11:28:22;;;;;;;10.07;9.07;;;15.00;96.30;;;;;;5013989;28;20434;-77
2022/10/18 11:31:08;;;;;;;12.37;8.20;;;14.90;96.30;;;;;;5014472;28;20426;-74
2022/10/18 11:34:10;;;;;;;6.80;5.60;;;14.80;96.30;;;;;;5032180;28;20902;-75
2022/10/18 11:36:52;;;;;;;7.80;6.70;;;14.70;96.30;;;;;;5031819;28;20451;-75
2022/10/18 11:40:00;;;;;;;7.20;6.27;;;14.70;96.30;;;;;;5032147;28;20403;-75
2022/10/18 11:42:36;;;;;;;6.43;5.93;;;14.70;96.30;;;;;;5014510;28;20435;-74
2022/10/18 11:45:21;;;;;;;8.73;7.93;;;14.60;96.30;;;;;;5032104;28;20438;-75
2022/10/18 11:48:19;;;;;;;7.83;7.00;;;14.70;96.30;;;;;;5031406;28;20449;-77
2022/10/18 11:51:03;;;;;;;7.70;6.90;;;14.70;96.30;;;;;;5031940;28;20423;-78
2022/10/18 11:53:42;;;;;;;14.90;7.60;;;14.70;96.30;;;;;;5032018;28;20836;-78
2022/10/18 11:56:26;;;;;;;7.10;6.40;;;14.70;96.30;;;;;;5014224;28;20498;-78
2022/10/18 11:59:06;;;;;;;6.60;6.00;;;14.70;96.30;;;;;;5013592;28;20438;-78
2022/10/18 12:01:42;;;;;;;7.60;6.03;;;14.60;96.30;;;;;;5031987;28;20431;-78
2022/10/18 12:04:14;;;;;;;7.10;6.40;;;14.60;96.30;;;;;;5031826;28;20411;-78
2022/10/18 12:06:42;;;;;;;7.00;6.30;;;14.50;96.30;;;;;;5031660;28;20936;-78
2022/10/18 12:09:18;;;;;;;5.97;5.47;;;14.50;96.30;;;;;;5031656;28;20913;-78
2022/10/18 12:11:50;;;;;;;8.97;5.90;;;14.40;96.30;;;;;;5033555;28;20430;-78
2022/10/18 12:14:25;;;;;;;7.33;6.10;;;14.30;96.30;;;;;;5018052;28;20493;-78
2022/10/18 12:16:53;;;;;;;7.10;6.40;;;14.30;96.30;;;;;;5017476;28;20419;-79
2022/10/18 12:19:25;;;;;;;6.23;5.63;;;14.30;96.30;;;;;;5035737;28;20446;-77
2022/10/18 12:21:52;;;;;;;6.37;5.70;;;14.20;96.30;;;;;;5017638;28;21137;-77
2022/10/18 12:24:26;;;;;;;10.30;6.10;;;14.20;96.30;;;;;;5035642;28;20494;-76
2022/10/18 12:26:58;;;;;;;5.03;4.53;;;14.20;96.30;;;;;;5035148;28;20438;-77
2022/10/18 12:29:27;;;;;;;10.67;4.37;;;14.10;96.30;;;;;;5035603;28;20411;-74
2022/10/18 12:32:13;;;;;;;6.97;3.60;;;14.10;96.30;;;;;;5035272;28;20430;-74
2022/10/18 12:34:49;;;;;;;4.40;3.50;;;14.00;96.30;;;;;;5035362;28;20508;-73
2022/10/18 12:37:42;;;;;;;3.73;3.13;;;14.00;96.30;;;;;;5034889;28;20886;-74
2022/10/18 12:40:16;;;;;;;3.10;2.77;;;14.10;96.30;;;;;;5035340;28;20402;-74
2022/10/18 12:42:47;;;;;;;3.73;3.37;;;14.10;96.30;;;;;;5017567;28;20410;-76
2022/10/18 12:45:31;;;;;;;2.83;2.63;;;14.10;96.30;;;;;;5017427;28;20415;-76
2022/10/18 12:48:03;;;;;;;3.00;2.70;;;14.10;96.30;;;;;;5034496;28;20407;-75
2022/10/18 12:50:33;;;;;;;3.27;2.20;;;14.10;96.30;;;;;;5035031;28;20414;-76
2022/10/18 12:53:19;;;;;;;2.20;2.00;;;14.00;96.30;;;;;;5035089;28;20472;-75
2022/10/18 12:55:50;;;;;;;2.33;1.80;;;14.00;96.30;;;;;;5034980;28;20446;-76
2022/10/18 12:58:26;;;;;;;1.80;1.70;;;14.00;96.30;;;;;;5034531;28;20922;-76
2022/10/18 13:01:04;;;;;;;1.70;1.60;;;13.90;96.30;;;;;;5017145;28;20446;-75
2022/10/18 13:03:53;;;;;;;1.30;1.20;;;13.90;96.30;;;;;;5035050;28;20399;-74
2022/10/18 13:06:19;;;;;;;1.30;1.20;;;13.90;96.30;;;;;;5034828;28;20422;-74
2022/10/18 13:08:47;;;;;;;1.43;1.00;;;13.90;96.30;;;;;;5034325;28;20411;-75
2022/10/18 13:11:32;;;;;;;5.10;1.20;;;13.90;96.30;;;;;;5034642;28;20439;-76
2022/10/18 13:14:12;;;;;;;3.90;1.47;;;13.90;96.30;;;;;;5034640;28;20429;-76
2022/10/18 13:16:44;;;;;;;1.20;0.60;;;13.90;96.30;;;;;;5034433;28;20898;-76
2022/10/18 13:19:27;;;;;;;0.80;0.60;;;13.90;96.30;;;;;;5034596;28;20457;-76
2022/10/18 13:22:32;;;;;;;0.90;0.70;;;13.90;96.30;;;;;;5034407;28;20466;-77
2022/10/18 13:25:09;;;;;;;0.97;0.60;;;13.90;96.30;;;;;;5034446;28;20407;-77
2022/10/18 13:28:01;;;;;;;1.60;0.73;;;14.00;96.30;;;;;;5032815;28;20426;-77
2022/10/18 13:30:31;;;;;;;0.80;0.60;;;14.00;96.30;;;;;;5033165;28;20521;-78
2022/10/18 13:33:32;;;;;;;0.80;0.60;;;14.00;96.30;;;;;;5034499;28;20771;-78
2022/10/18 13:36:03;;;;;;;0.83;0.60;;;14.20;96.30;;;;;;5033228;28;20826;-80
2022/10/18 13:38:58;;;;;;;1.00;0.80;;;14.10;96.30;;;;;;5032721;28;20837;-81
2022/10/18 13:41:26;;;;;;;0.80;0.53;;;14.20;96.30;;;;;;5033300;28;20508;-81
2022/10/18 13:43:52;;;;;;;1.10;0.60;;;;;;;;;;5034480;28;20413;-81
2022/10/18 13:46:33;;;;;;;0.80;0.50;;;14.20;96.30;;;;;;5033150;28;20486;-80
2022/10/18 13:49:23;;;;;;;0.90;0.70;;;14.20;96.30;;;;;;5034332;28;20454;-81
2022/10/18 13:52:02;;;;;;;1.47;0.60;;;14.30;96.30;;;;;;5034449;28;20447;-81
2022/10/18 13:54:33;;;;;;;1.13;0.60;;;14.30;96.30;;;;;;5034168;28;20537;-79
2022/10/18 13:57:12;;;;;;;0.90;0.80;;;14.30;96.30;;;;;;5033175;28;20929;-79
2022/10/18 14:00:02;;;;;;;0.83;0.60;;;14.40;96.30;;;;;;5032602;28;20422;-80
2022/10/18 14:02:30;;;;;;;1.50;0.60;;;14.40;96.30;;;;;;5033879;28;20522;-80
2022/10/18 14:05:08;;;;;;;1.40;0.60;;;14.40;96.30;;;;;;5032505;28;20422;-80
2022/10/18 14:07:34;;;;;;;1.37;0.60;;;14.40;96.30;;;;;;5033335;28;20914;-80
2022/10/18 14:10:03;;;;;;;0.90;0.50;;;14.40;96.30;;;;;;5033694;28;20903;-79
2022/10/18 14:12:42;;;;;;;0.80;0.60;;;14.30;96.30;;;;;;5032618;28;20953;-80
2022/10/18 14:15:19;;;;;;;0.80;0.60;;;14.40;96.30;;;;;;5033958;28;20438;-81
2022/10/18 14:17:52;;;;;;;0.80;0.50;;;14.40;96.30;;;;;;5033506;28;20449;-81
2022/10/18 14:20:26;;;;;;;0.80;0.60;;;14.40;96.30;;;;;;5034132;28;20768;-81
2022/10/18 14:23:07;;;;;;;1.90;0.60;;;14.40;96.30;;;;;;5034071;28;20487;-82
2022/10/18 14:25:35;;;;;;;0.80;0.60;;;14.40;96.30;;;;;;5032968;28;20465;-81
2022/10/18 14:28:16;;;;;;;2.10;0.57;;;14.50;96.30;;;;;;5032455;28;20461;-82
2022/10/18 14:30:51;;;;;;;4.20;0.70;;;14.50;96.30;;;;;;5024637;28;20443;-82
2022/10/18 14:33:45;;;;;;;0.80;0.50;;;14.50;96.30;;;;;;5017508;28;20414;-83
2022/10/18 14:36:21;;;;;;;0.80;0.50;;;14.60;96.30;;;;;;4999318;28;20541;-85
2022/10/18 14:38:56;;;;;;;0.90;0.50;;;14.60;96.30;;;;;;5018654;28;20422;-82
2022/10/18 14:41:49;;;;;;;0.80;0.60;;;14.60;96.30;;;;;;5036452;28;20829;-83
2022/10/18 14:44:15;;;;;;;1.00;0.70;;;;;;;;;;5025394;28;20949;-82
2022/10/18 14:46:45;;;;;;;1.03;0.70;;;14.60;96.30;;;;;;5032393;28;20425;-83
2022/10/18 14:49:12;;;;;;;0.90;0.60;;;14.80;96.30;;;;;;5053945;28;20201;-82
2022/10/18 14:51:41;;;;;;;0.97;0.87;;;14.80;96.30;;;;;;5045005;28;20513;-82
2022/10/18 14:54:16;;;;;;;0.80;0.50;;;14.60;96.30;;;;;;5000536;28;20495;-83
2022/10/18 14:56:43;;;;;;;2.30;0.80;;;14.50;96.30;;;;;;5015200;28;20400;-82
2022/10/18 14:59:22;;;;;;;0.83;0.57;;;14.40;96.30;;;;;;4999065;28;20529;-82
2022/10/18 15:01:57;;;;;;;0.90;0.70;;;14.40;96.30;;;;;;5014262;28;20441;-82
2022/10/18 15:04:31;;;;;;;10.03;0.80;;;14.40;96.30;;;;;;5036965;28;20463;-82
2022/10/18 15:07:12;;;;;;;0.90;0.70;;;14.30;96.30;;;;;;5036881;28;20449;-82
2022/10/18 15:09:39;;;;;;;1.03;0.80;;;14.20;96.30;;;;;;5055524;28;20797;-82
2022/10/18 15:12:06;;;;;;;2.83;0.90;;;14.10;96.30;;;;;;5036266;28;20437;-82
2022/10/18 15:14:32;;;;;;;1.53;0.80;;;14.10;96.30;;;;;;5037634;28;20478;-82
2022/10/18 15:17:07;;;;;;;1.63;0.80;;;14.10;96.30;;;;;;5037592;28;20430;-82
2022/10/18 15:19:38;;;;;;;1.30;0.90;;;14.10;96.30;;;;;;5037935;28;20435;-82
2022/10/18 15:22:07;;;;;;;2.23;0.90;;;14.00;96.30;;;;;;5054038;28;20455;-82
2022/10/18 15:24:34;;;;;;;0.80;0.70;;;14.00;96.30;;;;;;5051962;28;20413;-81
2022/10/18 15:27:09;;;;;;;1.40;0.93;;;14.00;96.30;;;;;;5033429;28;20442;-83
2022/10/18 15:29:36;;;;;;;0.90;0.67;;;14.00;96.30;;;;;;5034248;28;20409;-82
2022/10/18 15:32:34;;;;;;;1.20;0.87;;;14.00;96.30;;;;;;5034209;28;20441;-81
2022/10/18 15:35:18;;;;;;;1.00;0.80;;;13.90;96.30;;;;;;4991344;28;20552;-82
2022/10/18 15:37:46;;;;;;;1.00;0.70;;;13.80;96.30;;;;;;5034710;28;20417;-82
2022/10/18 15:40:21;;;;;;;1.20;0.70;;;13.70;96.30;;;;;;5052853;28;20414;-82
2022/10/18 15:42:55;;;;;;;2.30;0.67;;;13.60;96.30;;;;;;5052511;28;20496;-82
2022/10/18 15:45:32;;;;;;;1.10;0.70;;;13.50;96.30;;;;;;5052380;28;20445;-81
2022/10/18 15:48:11;;;;;;;1.27;0.87;;;13.50;96.30;;;;;;5033196;28;20454;-81
2022/10/18 15:50:55;;;;;;;1.30;0.70;;;13.50;96.30;;;;;;5034828;28;20465;-81
2022/10/18 15:53:27;;;;;;;1.00;0.77;;;13.50;96.30;;;;;;5052549;28;20406;-81
2022/10/18 15:56:03;;;;;;;1.00;0.90;;;13.40;96.30;;;;;;5035324;28;20457;-80
2022/10/18 15:58:43;;;;;;;0.90;0.70;;;13.40;96.30;;;;;;5034262;28;20512;-81
2022/10/18 16:01:21;;;;;;;2.33;1.07;;;13.40;96.30;;;;;;5051752;28;20564;-80
2022/10/18 16:03:48;;;;;;;1.20;1.10;;;13.30;96.30;;;;;;5017958;28;20517;-80
2022/10/18 16:06:15;;;;;;;1.50;1.40;;;13.30;96.30;;;;;;5014575;28;20521;-80
2022/10/18 16:08:47;;;;;;;2.43;1.60;;;13.20;96.30;;;;;;5031227;28;20419;-82
2022/10/18 16:11:13;;;;;;;2.37;1.70;;;;;;;;;;5032094;28;20430;-80
2022/10/18 16:13:39;;;;;;;3.17;1.70;;;13.00;96.30;;;;;;5044557;28;20470;-80
2022/10/18 16:16:05;;;;;;;2.90;1.20;;;12.90;96.30;;;;;;5046467;28;20459;-80
2022/10/18 16:18:31;;;;;;;1.40;0.93;;;;;;;;;;5030733;28;20206;-80
2022/10/18 16:20:57;;;;;;;1.50;1.00;;;;;;;;;;5040384;28;20430;-81
2022/10/18 16:23:25;;;;;;;1.00;0.70;;;12.90;96.30;;;;;;5047273;28;20571;-79
2022/10/18 16:25:51;;;;;;;1.53;0.87;;;12.90;96.30;;;;;;5014671;28;20918;-79
2022/10/18 16:28:23;;;;;;;1.07;0.90;;;12.90;96.30;;;;;;5041769;28;20507;-79
2022/10/18 16:30:55;;;;;;;1.77;0.90;;;12.90;96.30;;;;;;5034897;28;20443;-78
2022/10/18 16:33:21;;;;;;;3.13;1.00;;;12.90;96.30;;;;;;5032594;28;20430;-79
2022/10/18 16:35:47;;;;;;;1.63;0.80;;;12.90;96.30;;;;;;5034953;28;20450;-82
2022/10/18 16:38:34;;;;;;;2.33;1.10;;;12.90;96.30;;;;;;5016849;28;20786;-81
2022/10/18 16:41:01;;;;;;;2.63;0.90;;;12.90;96.30;;;;;;5017425;28;20695;-81
2022/10/18 16:43:26;;;;;;;2.93;1.37;;;12.90;96.30;;;;;;5017382;28;20475;-82
2022/10/18 16:45:53;;;;;;;1.00;0.70;;;12.90;96.30;;;;;;5016933;28;20833;-82
2022/10/18 16:48:21;;;;;;;2.80;1.10;;;12.90;96.30;;;;;;5016649;28;20184;-82
2022/10/18 16:50:47;;;;;;;1.30;0.90;;;12.90;96.30;;;;;;5019675;28;20542;-81
2022/10/18 16:53:13;;;;;;;1.87;0.80;;;;;;;;;;5019760;28;20506;-81
2022/10/18 16:55:40;;;;;;;2.03;1.00;;;12.90;96.30;;;;;;5020575;28;20505;-81
2022/10/18 16:58:07;;;;;;;1.20;1.10;;;12.80;96.30;;;;;;5040397;28;20443;-81
2022/10/18 17:00:33;;;;;;;2.60;1.30;;;;;;;;;;5025168;28;20441;-80
2022/10/18 17:02:58;;;;;;;1.30;1.03;;;12.70;96.30;;;;;;5048068;28;20506;-81
2022/10/18 17:05:24;;;;;;;1.40;1.17;;;12.70;96.30;;;;;;5060010;28;20432;-81
2022/10/18 17:07:50;;;;;;;4.30;1.10;;;;;;;;;;5041186;28;20172;-79
2022/10/18 17:10:19;;;;;;;1.40;1.10;;;12.60;96.30;;;;;;5032018;28;20481;-80
2022/10/18 17:12:44;;;;;;;2.60;1.00;;;12.60;96.30;;;;;;5057545;28;20425;-80
2022/10/18 17:15:10;;;;;;;1.73;1.60;;;12.60;96.30;;;;;;5063628;28;20537;-81
2022/10/18 17:17:37;;;;;;;6.70;6.10;;;12.50;96.30;;;;;;5047810;28;20183;-79
2022/10/18 17:20:05;;;;;;;3.33;2.83;;;12.50;96.30;;;;;;5044579;28;20632;-81